Time;durP1;ratioP1;P1;durP2;ratioP2;P2;SDS_P1;SDS_P2;PMS_P1;PMS_P2;Temp;Humidity;BMP_temperature;BMP_pressure;BME280_temperature;BME280_humidity;BME280_pressure;Samples;Min_cycle;Max_cycle;Signal;HPM_P1;HPM_P2
2021/08/14 00:01:57;;;;;;;13.25;7.22;;;;;;;17.96;100.00;101318.22;1756124;81;21059;-86
2021/08/14 00:04:24;;;;;;;11.35;7.42;;;;;;;17.94;100.00;101314.87;1756060;81;21149;-85
2021/08/14 00:06:51;;;;;;;14.13;8.20;;;;;;;17.91;100.00;101311.20;1756098;81;21007;-86
2021/08/14 00:09:18;;;;;;;13.05;7.12;;;;;;;17.88;100.00;101315.92;1732238;81;21043;-86
2021/08/14 00:11:45;;;;;;;16.73;7.67;;;;;;;17.84;100.00;101323.30;1756323;80;21103;-86
2021/08/14 00:14:12;;;;;;;11.20;7.85;;;;;;;17.79;100.00;101330.31;1738777;81;21053;-86
2021/08/14 00:16:39;;;;;;;15.50;9.18;;;;;;;17.78;100.00;101330.47;1764473;80;21146;-87
2021/08/14 00:19:07;;;;;;;15.32;9.20;;;;;;;17.79;100.00;101330.81;1764475;80;21002;-85
2021/08/14 00:21:34;;;;;;;11.80;8.43;;;;;;;17.78;100.00;101327.84;1740337;80;21612;-85
2021/08/14 00:24:03;;;;;;;13.53;8.50;;;;;;;17.78;100.00;101336.59;1764495;80;21502;-86
2021/08/14 00:26:30;;;;;;;13.80;8.55;;;;;;;17.78;100.00;101331.79;1740297;80;21074;-86
2021/08/14 00:28:58;;;;;;;14.70;9.08;;;;;;;17.77;100.00;101330.97;1740375;81;21934;-86
2021/08/14 00:31:25;;;;;;;14.33;8.60;;;;;;;17.73;100.00;101326.14;1738518;80;21676;-85
2021/08/14 00:33:52;;;;;;;13.80;8.78;;;;;;;17.70;100.00;101326.41;1710842;81;21074;-85
2021/08/14 00:36:19;;;;;;;13.68;9.10;;;;;;;17.66;100.00;101329.36;1710740;81;20976;-86
2021/08/14 00:38:46;;;;;;;13.95;9.35;;;;;;;17.64;100.00;101330.45;1782748;79;21041;-85
2021/08/14 00:41:13;;;;;;;15.35;8.78;;;;;;;17.59;100.00;101325.61;1782641;79;21767;-85
2021/08/14 00:43:40;;;;;;;13.25;8.45;;;;;;;17.56;100.00;101321.13;1760643;79;21515;-86
2021/08/14 00:46:07;;;;;;;19.35;9.30;;;;;;;17.50;100.00;101324.69;1760305;80;21523;-87
2021/08/14 00:48:36;;;;;;;14.07;9.25;;;;;;;17.47;100.00;101324.14;1760665;80;20997;-84
2021/08/14 00:51:08;;;;;;;12.82;8.70;;;;;;;17.46;100.00;101333.86;1760380;79;21068;-85
2021/08/14 00:53:36;;;;;;;15.23;9.00;;;;;;;17.46;100.00;101335.17;1760605;79;21168;-87
2021/08/14 00:56:04;;;;;;;16.12;8.95;;;;;;;17.46;100.00;101336.49;1782579;79;21638;-86
2021/08/14 00:58:32;;;;;;;15.88;9.50;;;;;;;17.45;100.00;101332.66;1760553;79;21041;-88
2021/08/14 01:00:59;;;;;;;12.15;8.83;;;;;;;17.46;100.00;101335.17;1782638;79;20945;-85
2021/08/14 01:03:28;;;;;;;17.73;10.20;;;;;;;17.47;100.00;101335.99;1760723;80;20922;-86
2021/08/14 01:05:56;;;;;;;14.38;9.43;;;;;;;17.47;100.00;101332.05;1778814;79;21141;-85
2021/08/14 01:08:23;;;;;;;19.82;9.73;;;;;;;17.46;100.00;101329.91;1751625;80;20953;-84
2021/08/14 01:10:51;;;;;;;14.13;9.55;;;;;;;17.45;100.00;101328.72;1729134;80;20956;-85
2021/08/14 01:13:20;;;;;;;13.20;8.83;;;;;;;17.42;100.00;101328.52;1752266;81;20945;-88
2021/08/14 01:15:49;;;;;;;13.90;9.03;;;;;;;17.42;100.00;101328.52;1753587;80;21131;-86
2021/08/14 01:18:18;;;;;;;15.13;9.63;;;;;;;17.42;100.00;101324.57;1752839;80;21144;-86
2021/08/14 01:20:46;;;;;;;11.15;8.43;;;;;;;17.40;100.00;101326.52;1752744;80;21092;-86
2021/08/14 01:23:14;;;;;;;12.75;9.15;;;;;;;17.37;100.00;101322.02;1753015;80;20989;-87
2021/08/14 01:25:44;;;;;;;13.35;9.05;;;;;;;17.30;100.00;101328.36;1752828;80;21063;-87
2021/08/14 01:28:13;;;;;;;14.78;8.75;;;;;;;17.23;100.00;101322.82;1753480;80;20945;-87
2021/08/14 01:30:43;;;;;;;11.38;8.55;;;;;;;17.24;100.00;101327.12;1753869;80;20937;-86
2021/08/14 01:33:13;;;;;;;11.70;8.75;;;;;;;17.23;100.00;101321.98;1753002;81;20992;-86
2021/08/14 01:35:42;;;;;;;13.32;8.28;;;;;;;17.18;100.00;101319.30;1753048;80;21067;-86
2021/08/14 01:38:09;;;;;;;11.57;8.13;;;;;;;17.13;100.00;101316.73;1753114;80;21044;-87
2021/08/14 01:40:36;;;;;;;11.53;7.90;;;;;;;17.07;100.00;101319.94;1753606;80;21150;-87
2021/08/14 01:43:03;;;;;;;19.55;8.40;;;;;;;17.03;100.00;101313.63;1753891;80;21134;-86
2021/08/14 01:45:30;;;;;;;13.28;8.55;;;;;;;17.05;100.00;101317.92;1752760;80;20949;-86
2021/08/14 01:47:57;;;;;;;9.80;7.65;;;;;;;17.07;100.00;101314.68;1753118;80;21012;-88
2021/08/14 01:50:26;;;;;;;13.20;8.63;;;;;;;17.12;100.00;101312.45;1753583;80;21019;-87
2021/08/14 01:52:54;;;;;;;12.78;8.60;;;;;;;17.16;100.00;101313.34;1753186;80;21051;-86
2021/08/14 01:55:22;;;;;;;12.43;8.43;;;;;;;17.18;100.00;101312.72;1752927;80;21092;-85
2021/08/14 01:57:50;;;;;;;17.07;9.20;;;;;;;17.20;100.00;101311.25;1753723;80;21072;-86
2021/08/14 02:00:17;;;;;;;12.53;9.10;;;;;;;17.23;100.00;101312.30;1753664;80;21028;-86
2021/08/14 02:02:45;;;;;;;14.23;9.05;;;;;;;17.20;100.00;101309.94;1752894;80;21574;-89
2021/08/14 02:05:12;;;;;;;14.43;9.85;;;;;;;17.15;100.00;101303.78;1753630;80;21047;-86
2021/08/14 02:07:41;;;;;;;14.65;9.45;;;;;;;17.10;100.00;101303.39;1753015;80;21060;-87
2021/08/14 02:10:11;;;;;;;14.50;9.40;;;;;;;17.05;100.00;101300.36;1752819;80;21590;-86
2021/08/14 02:12:38;;;;;;;13.95;9.50;;;;;;;17.02;100.00;101301.45;1752707;80;21130;-86
2021/08/14 02:15:08;;;;;;;15.45;8.58;;;;;;;17.03;100.00;101303.61;1745386;80;21072;-88
2021/08/14 02:17:35;;;;;;;10.23;7.97;;;;;;;17.00;100.00;101307.36;1747644;81;21056;-88
2021/08/14 02:20:05;;;;;;;12.07;8.18;;;;;;;16.95;100.00;101302.98;1750313;80;21002;-87
2021/08/14 02:22:31;;;;;;;9.95;7.83;;;;;;;16.88;100.00;101305.80;1750285;80;21013;-85
2021/08/14 02:24:58;;;;;;;8.55;7.30;;;;;;;16.84;100.00;101303.12;1750519;79;20973;-87
2021/08/14 02:27:25;;;;;;;9.80;7.83;;;;;;;16.83;100.00;101306.72;1750636;81;20944;-86
2021/08/14 02:29:54;;;;;;;10.25;7.78;;;;;;;16.80;100.00;101304.35;1772196;79;21020;-87
2021/08/14 02:32:21;;;;;;;9.35;7.33;;;;;;;16.77;100.00;101308.59;1771953;79;22006;-89
2021/08/14 02:34:48;;;;;;;11.18;7.22;;;;;;;16.78;100.00;101312.89;1737913;81;20907;-87
2021/08/14 02:37:15;;;;;;;10.30;7.12;;;;;;;16.81;100.00;101312.59;1721578;81;20997;-88
2021/08/14 02:39:43;;;;;;;9.68;6.97;;;;;;;16.86;100.00;101312.52;1726180;81;21541;-85
2021/08/14 02:42:12;;;;;;;8.23;6.17;;;;;;;16.91;100.00;101311.26;1741453;81;20997;-87
2021/08/14 02:44:41;;;;;;;9.90;6.83;;;;;;;16.93;100.00;101311.98;1714743;81;21141;-85
2021/08/14 02:47:08;;;;;;;8.65;6.50;;;;;;;16.93;100.00;101310.20;1739513;79;21036;-85
2021/08/14 02:49:35;;;;;;;11.40;7.03;;;;;;;16.91;100.00;101304.22;1766728;79;21060;-84
2021/08/14 02:52:05;;;;;;;22.90;6.85;;;;;;;16.86;100.00;101306.45;1754700;79;21080;-84
2021/08/14 02:54:32;;;;;;;13.78;7.10;;;;;;;16.80;100.00;101309.61;1737041;79;21089;-85
2021/08/14 02:56:59;;;;;;;9.73;6.35;;;;;;;16.77;100.00;101308.59;1749109;80;21821;-83
2021/08/14 02:59:26;;;;;;;11.10;6.25;;;;;;;16.76;100.00;101305.12;1752253;79;21088;-85
2021/08/14 03:01:54;;;;;;;19.98;9.50;;;;;;;16.76;100.00;101305.12;1741307;80;20993;-86
2021/08/14 03:04:21;;;;;;;18.55;10.13;;;;;;;16.83;100.00;101309.34;1703762;81;21529;-84
2021/08/14 03:06:56;;;;;;;15.43;9.58;;;;;;;16.85;100.00;101310.05;1748290;81;21045;-84
2021/08/14 03:09:23;;;;;;;18.12;10.13;;;;;;;16.89;100.00;101307.47;1748242;80;21153;-85
2021/08/14 03:11:52;;;;;;;23.60;12.33;;;;;;;16.94;100.00;101307.92;1765431;79;21150;-84
2021/08/14 03:14:19;;;;;;;13.93;8.05;;;;;;;16.96;100.00;101302.02;1716967;81;21411;-83
2021/08/14 03:16:48;;;;;;;10.55;7.25;;;;;;;16.97;100.00;101306.31;1772126;79;20943;-85
2021/08/14 03:19:15;;;;;;;9.08;6.30;;;;;;;16.91;100.00;101306.00;1720314;81;21145;-84
2021/08/14 03:21:42;;;;;;;7.03;6.33;;;;;;;16.83;100.00;101307.53;1743433;81;22198;-84
2021/08/14 03:24:10;;;;;;;7.78;6.15;;;;;;;16.78;100.00;101303.69;1756229;80;21070;-86
2021/08/14 03:26:39;;;;;;;7.60;6.47;;;;;;;16.72;100.00;101301.94;1772055;79;21107;-82
2021/08/14 03:29:07;;;;;;;9.50;7.08;;;;;;;16.65;100.00;101304.78;1732733;81;21003;-83
2021/08/14 03:31:36;;;;;;;8.45;6.87;;;;;;;16.60;100.00;101315.36;1756431;80;21035;-86
2021/08/14 03:34:03;;;;;;;6.90;6.30;;;;;;;16.55;100.00;101307.87;1749824;81;21937;-85
2021/08/14 03:36:30;;;;;;;7.17;6.22;;;;;;;16.54;100.00;101314.13;1732634;81;21023;-83
2021/08/14 03:38:57;;;;;;;8.10;6.55;;;;;;;16.52;100.00;101307.67;1749878;81;21056;-85
2021/08/14 03:41:24;;;;;;;9.28;6.70;;;;;;;16.52;100.00;101308.99;1732689;80;21058;-83
2021/08/14 03:43:50;;;;;;;8.95;6.58;;;;;;;16.50;100.00;101316.67;1727090;80;21036;-86
2021/08/14 03:46:17;;;;;;;8.05;6.55;;;;;;;16.47;100.00;101317.78;1744380;80;21847;-84
2021/08/14 03:48:45;;;;;;;7.70;6.90;;;;;;;16.46;100.00;101313.98;1744265;80;21037;-83
2021/08/14 03:51:12;;;;;;;7.30;6.53;;;;;;;16.43;100.00;101318.19;1725446;82;21020;-83
2021/08/14 03:53:39;;;;;;;11.57;6.65;;;;;;;16.42;100.00;101318.69;1725211;81;21402;-84
2021/08/14 03:56:05;;;;;;;9.48;6.92;;;;;;;16.45;100.00;101316.27;1730506;81;21049;-83
2021/08/14 03:58:34;;;;;;;8.83;7.25;;;;;;;16.49;100.00;101318.95;1710972;82;21110;-84
2021/08/14 04:01:02;;;;;;;11.00;7.40;;;;;;;16.52;100.00;101328.70;1756735;79;21368;-84
2021/08/14 04:03:30;;;;;;;9.30;7.45;;;;;;;16.53;100.00;101326.43;1756217;80;21001;-84
2021/08/14 04:05:57;;;;;;;10.08;7.25;;;;;;;16.56;100.00;101333.20;1755224;79;21029;-85
2021/08/14 04:08:24;;;;;;;7.90;7.10;;;;;;;16.58;100.00;101337.85;1774757;79;20993;-83
2021/08/14 04:10:51;;;;;;;8.20;7.10;;;;;;;16.60;100.00;101341.65;1732413;81;21522;-83
2021/08/14 04:13:19;;;;;;;10.63;7.45;;;;;;;16.62;100.00;101339.25;1746545;79;20998;-85
2021/08/14 04:15:46;;;;;;;7.97;7.17;;;;;;;16.66;100.00;101346.38;1693379;82;21036;-84
2021/08/14 04:18:14;;;;;;;10.43;7.45;;;;;;;16.70;100.00;101343.31;1760966;80;21044;-84
2021/08/14 04:20:42;;;;;;;8.45;7.37;;;;;;;16.74;100.00;101345.67;1736911;81;21051;-83
2021/08/14 04:23:09;;;;;;;9.00;7.47;;;;;;;16.76;100.00;101350.32;1680413;84;21082;-85
2021/08/14 04:25:36;;;;;;;10.25;7.45;;;;;;;16.78;100.00;101352.34;1728313;81;21025;-82
2021/08/14 04:28:03;;;;;;;10.05;8.18;;;;;;;16.81;100.00;101352.05;1686337;81;21041;-85
2021/08/14 04:30:30;;;;;;;8.88;7.83;;;;;;;16.83;100.00;101354.88;1736740;80;21053;-82
2021/08/14 04:32:58;;;;;;;14.63;8.75;;;;;;;16.88;100.00;101361.03;1702053;83;21088;-82
2021/08/14 04:35:24;;;;;;;9.20;7.90;;;;;;;16.91;100.00;101359.45;1734919;81;21648;-83
2021/08/14 04:37:52;;;;;;;11.65;9.75;;;;;;;16.96;100.00;101357.76;1734821;81;20993;-85
2021/08/14 04:40:21;;;;;;;9.45;8.48;;;;;;;17.00;100.00;101359.13;1734928;81;21095;-84
2021/08/14 04:42:49;;;;;;;10.23;9.13;;;;;;;17.06;100.00;101359.05;1700458;83;21372;-82
2021/08/14 04:45:17;;;;;;;13.30;10.20;;;;;;;17.11;100.00;101372.61;1753830;80;21103;-84
2021/08/14 04:47:43;;;;;;;13.28;10.28;;;;;;;17.17;100.00;101373.39;1724826;82;21134;-82
2021/08/14 04:50:11;;;;;;;12.78;10.20;;;;;;;17.23;100.00;101381.19;1758694;80;20985;-88
2021/08/14 04:52:38;;;;;;;15.58;10.93;;;;;;;17.26;100.00;101383.08;1701602;83;21481;-86
2021/08/14 04:55:05;;;;;;;11.60;10.40;;;;;;;17.31;100.00;101386.58;1758702;80;21091;-84
2021/08/14 04:57:32;;;;;;;14.38;11.12;;;;;;;17.34;100.00;101388.47;1724630;82;21537;-86
2021/08/14 04:59:59;;;;;;;12.80;11.20;;;;;;;17.39;100.00;101380.62;1734694;80;21045;-84
2021/08/14 05:02:27;;;;;;;17.27;12.37;;;;;;;17.45;100.00;101382.22;1701543;82;21014;-84
2021/08/14 05:04:54;;;;;;;16.60;12.25;;;;;;;17.52;100.00;101385.59;1734916;81;21558;-85
2021/08/14 05:07:22;;;;;;;17.65;12.00;;;;;;;17.59;100.00;101388.81;1724667;82;21006;-86
2021/08/14 05:09:50;;;;;;;12.88;11.48;;;;;;;17.66;100.00;101388.61;1735045;80;21238;-86
2021/08/14 05:12:18;;;;;;;17.62;12.15;;;;;;;17.74;100.00;101393.14;1701756;82;21105;-87
2021/08/14 05:14:45;;;;;;;14.40;11.60;;;;;;;17.80;100.00;101389.11;1764538;79;21167;-87
2021/08/14 05:17:12;;;;;;;15.08;11.88;;;;;;;17.85;100.00;101392.13;1750103;81;21025;-85
2021/08/14 05:19:39;;;;;;;17.77;13.05;;;;;;;17.90;100.00;101396.97;1732975;80;21102;-88
2021/08/14 05:22:06;;;;;;;16.93;12.15;;;;;;;17.92;100.00;101394.53;1772121;79;21087;-90
2021/08/14 05:24:33;;;;;;;14.63;11.83;;;;;;;17.94;100.00;101400.49;1733032;80;21165;-88
2021/08/14 05:27:00;;;;;;;14.83;12.07;;;;;;;17.99;100.00;101400.09;1749896;81;20946;-87
2021/08/14 05:29:28;;;;;;;15.85;11.08;;;;;;;18.06;100.00;101396.40;1732372;81;21577;-85
2021/08/14 05:31:55;;;;;;;13.10;11.00;;;;;;;18.13;100.00;101397.47;1772060;79;21059;-87
2021/08/14 05:34:22;;;;;;;13.00;10.65;;;;;;;18.20;100.00;101398.55;1771880;79;21795;-86
2021/08/14 05:36:49;;;;;;;15.45;11.12;;;;;;;18.28;100.00;101397.80;1734105;79;21004;-86
2021/08/14 05:39:15;;;;;;;10.48;9.18;;;;;;;18.37;100.00;101392.14;1756193;80;20991;-85
2021/08/14 05:41:46;;;;;;;10.20;8.65;;;;;;;18.44;100.00;101394.53;1695416;83;20964;-84
2021/08/14 05:44:12;;;;;;;9.43;8.45;;;;;;;18.50;100.00;101399.20;1733614;81;21440;-87
2021/08/14 05:46:39;;;;;;;9.30;8.40;;;;;;;18.55;100.00;101400.89;1758364;81;21135;-86
2021/08/14 05:49:07;;;;;;;9.13;8.03;;;;;;;18.61;100.00;101402.11;1719922;81;21321;-82
2021/08/14 05:51:36;;;;;;;8.70;7.72;;;;;;;18.70;100.00;101399.90;1720108;82;21031;-82
2021/08/14 05:54:04;;;;;;;10.25;7.67;;;;;;;18.80;100.00;101395.86;1724572;81;21064;-84
2021/08/14 05:56:31;;;;;;;9.00;7.75;;;;;;;18.90;100.00;101394.48;1749777;81;21104;-86
2021/08/14 05:58:59;;;;;;;9.55;7.72;;;;;;;19.02;100.00;101393.80;1749795;79;21060;-84
2021/08/14 06:01:26;;;;;;;10.05;8.00;;;;;;;19.12;100.00;101390.56;1772117;79;21166;-83
2021/08/14 06:03:54;;;;;;;10.78;8.08;;;;;;;19.22;100.00;101396.59;1736832;81;21048;-84
2021/08/14 06:06:21;;;;;;;8.48;7.67;;;;;;;19.35;100.00;101401.95;1727672;81;21594;-84
2021/08/14 06:08:49;;;;;;;9.00;8.10;;;;;;;19.46;100.00;101402.22;1699015;81;21460;-83
2021/08/14 06:11:16;;;;;;;9.95;7.37;;;;;;;19.62;100.00;101404.11;1718094;81;21049;-85
2021/08/14 06:13:44;;;;;;;8.63;7.80;;;;;;;19.77;100.00;101402.55;1743148;81;21176;-84
2021/08/14 06:16:12;;;;;;;12.73;7.17;;;;;;;19.89;100.00;101397.85;1742521;79;21021;-84
2021/08/14 06:18:42;;;;;;;8.60;6.80;;;;;;;19.98;100.00;101396.09;1771861;79;21079;-84
2021/08/14 06:21:11;;;;;;;8.95;6.87;;;;;;;20.08;100.00;101398.60;1771904;79;21008;-85
2021/08/14 06:23:39;;;;;;;11.40;7.30;;;;;;;20.15;100.00;101399.11;1742846;79;20941;-85
2021/08/14 06:26:07;;;;;;;7.28;6.55;;;;;;;20.24;100.00;101395.17;1772157;79;21001;-85
2021/08/14 06:28:34;;;;;;;7.67;6.97;;;;;;;20.36;100.00;101392.59;1742686;81;21397;-83
2021/08/14 06:31:03;;;;;;;8.38;6.80;;;;;;;20.48;100.00;101389.95;1772125;79;21099;-87
2021/08/14 06:33:30;;;;;;;9.83;7.75;;;;;;;20.63;100.00;101395.96;1718567;81;21116;-86
2021/08/14 06:35:57;;;;;;;7.85;6.70;;;;;;;20.73;100.00;101394.00;1743028;79;21492;-85
2021/08/14 06:38:25;;;;;;;8.08;7.17;;;;;;;20.85;100.00;101391.86;1742826;81;21474;-84
2021/08/14 06:40:52;;;;;;;8.18;7.35;;;;;;;20.99;100.00;101397.52;1772332;79;20989;-85
2021/08/14 06:43:19;;;;;;;8.73;7.60;;;;;;;21.13;100.00;101392.87;1742844;81;21018;-87
2021/08/14 06:45:46;;;;;;;11.15;7.17;;;;;;;21.25;100.00;101396.01;1743239;81;21033;-83
2021/08/14 06:48:13;;;;;;;9.15;7.08;;;;;;;21.36;100.00;101394.83;1771994;79;21551;-86
2021/08/14 06:50:40;;;;;;;8.88;7.12;;;;;;;21.42;100.00;101391.03;1771984;79;21182;-85
2021/08/14 06:53:07;;;;;;;11.25;7.33;;;;;;;21.43;100.00;101386.03;1775803;80;20939;-85
2021/08/14 06:55:34;;;;;;;8.78;6.97;;;;;;;21.48;100.00;101387.36;1743093;81;21061;-84
2021/08/14 06:58:01;;;;;;;10.03;7.00;;;;;;;21.56;100.00;101392.64;1772008;79;21036;-85
2021/08/14 07:00:29;;;;;;;7.25;6.55;;;;;;;21.57;100.00;101394.30;1772211;80;21064;-86
2021/08/14 07:02:57;;;;;;;8.95;7.17;;;;;;;21.57;100.00;101391.66;1772213;79;20946;-87
2021/08/14 07:05:24;;;;;;;9.58;7.37;;;;;;;21.64;100.00;101394.46;1743129;81;20945;-85
2021/08/14 07:07:51;;;;;;;11.33;6.92;;;;;;;21.70;100.00;101391.97;1718473;81;21606;-86
2021/08/14 07:10:19;;;;;;;10.30;7.08;;;;;;;21.78;100.00;101390.29;1742686;79;21588;-84
2021/08/14 07:12:48;;;;;;;8.63;7.10;;;;;;;21.88;100.00;101395.72;1772028;79;21139;-84
2021/08/14 07:15:14;;;;;;;9.33;6.75;;;;;;;21.98;100.00;101390.71;1772208;79;21187;-84
2021/08/14 07:17:42;;;;;;;8.23;7.10;;;;;;;22.09;100.00;101397.45;1742781;79;21088;-84
2021/08/14 07:20:10;;;;;;;11.65;7.12;;;;;;;22.17;100.00;101399.59;1742835;81;21980;-86
2021/08/14 07:22:38;;;;;;;8.00;7.15;;;;;;;22.26;100.00;101400.36;1772138;79;21069;-84
2021/08/14 07:25:06;;;;;;;10.65;7.33;;;;;;;22.33;100.00;101393.88;1772330;79;20989;-86
2021/08/14 07:27:33;;;;;;;11.12;7.47;;;;;;;22.37;100.00;101392.51;1743013;80;21020;-84
2021/08/14 07:30:00;;;;;;;8.03;6.97;;;;;;;22.40;100.00;101392.69;1743240;79;21633;-85
2021/08/14 07:32:27;;;;;;;7.87;7.12;;;;;;;22.42;100.00;101388.04;1725775;79;21001;-85
2021/08/14 07:34:55;;;;;;;9.50;7.08;;;;;;;22.45;100.00;101393.01;1772648;79;21044;-86
2021/08/14 07:37:22;;;;;;;9.98;6.92;;;;;;;22.41;100.00;101384.57;1742898;81;21143;-86
2021/08/14 07:39:49;;;;;;;8.83;7.35;;;;;;;22.37;100.00;101389.37;1742988;81;21117;-84
2021/08/14 07:42:16;;;;;;;9.95;6.70;;;;;;;22.36;100.00;101389.05;1743082;79;21535;-87
2021/08/14 07:44:44;;;;;;;9.53;6.80;;;;;;;22.35;100.00;101384.73;1743000;79;21441;-86
2021/08/14 07:47:11;;;;;;;9.93;6.65;;;;;;;22.36;100.00;101391.70;1742978;80;21023;-86
2021/08/14 07:49:38;;;;;;;9.20;6.75;;;;;;;22.42;100.00;101386.23;1776247;80;21024;-86
2021/08/14 07:52:05;;;;;;;6.80;6.12;;;;;;;22.50;100.00;101387.51;1742892;79;21076;-84
2021/08/14 07:54:32;;;;;;;6.60;5.92;;;;;;;22.63;100.00;101381.62;1750267;80;21048;-84
2021/08/14 07:56:59;;;;;;;7.37;6.40;;;;;;;22.76;100.00;101380.19;1742860;79;21492;-85
2021/08/14 07:59:27;;;;;;;7.55;5.60;;;;;;;22.85;100.00;101381.27;1732302;81;20981;-84
2021/08/14 08:01:54;;;;;;;9.73;5.95;;;;;;;22.95;100.00;101382.37;1740521;81;21001;-85
2021/08/14 08:04:21;;;;;;;11.35;5.95;;;;;;;23.07;100.00;101385.42;1757320;79;21133;-88
2021/08/14 08:06:48;;;;;;;7.00;6.05;;;;;;;23.18;100.00;101374.89;1718514;82;20985;-83
2021/08/14 08:09:15;;;;;;;8.23;5.67;;;;;;;23.27;100.00;101371.16;1740472;81;21528;-82
2021/08/14 08:11:42;;;;;;;7.65;5.87;;;;;;;23.39;100.00;101368.87;1754271;79;20993;-83
2021/08/14 08:14:10;;;;;;;12.85;6.33;;;;;;;23.53;100.00;101360.56;1742793;81;21001;-85
2021/08/14 08:16:37;;;;;;;5.90;4.92;;;;;;;23.67;97.45;101357.59;1752050;80;21089;-84
2021/08/14 08:19:05;;;;;;;6.15;5.33;;;;;;;23.77;93.33;101354.16;1717932;80;20989;-84
2021/08/14 08:21:32;;;;;;;6.65;4.72;;;;;;;23.87;94.02;101356.52;1773057;79;21035;-87
2021/08/14 08:23:59;;;;;;;5.90;4.83;;;;;;;23.96;91.90;101362.57;1718857;80;20973;-85
2021/08/14 08:26:26;;;;;;;11.78;6.05;;;;;;;24.01;84.22;101362.86;1691773;80;21433;-84
2021/08/14 08:28:53;;;;;;;6.53;4.55;;;;;;;24.05;87.65;101360.65;1746019;80;21040;-83
2021/08/14 08:31:21;;;;;;;6.72;4.37;;;;;;;24.12;84.43;101359.41;1744077;80;21064;-88
2021/08/14 08:33:48;;;;;;;5.00;4.50;;;;;;;24.20;77.27;101361.92;1768486;79;21040;-84
2021/08/14 08:36:15;;;;;;;8.15;4.47;;;;;;;24.31;76.26;101351.32;1769579;79;20985;-84
2021/08/14 08:38:43;;;;;;;6.75;4.47;;;;;;;24.42;75.68;101352.13;1703732;80;20957;-86
2021/08/14 08:41:10;;;;;;;6.75;4.28;;;;;;;24.50;71.70;101343.21;1746829;80;21072;-83
2021/08/14 08:43:40;;;;;;;8.10;4.75;;;;;;;24.56;72.58;101343.25;1703614;81;21064;-84
2021/08/14 08:46:11;;;;;;;7.15;4.35;;;;;;;24.70;80.13;101343.42;1753157;80;20945;-85
2021/08/14 08:48:49;;;;;;;6.83;4.60;;;;;;;24.87;72.10;101338.64;1704751;82;21005;-84
2021/08/14 08:51:27;;;;;;;5.28;4.72;;;;;;;25.02;69.22;101331.89;1698569;82;21017;-87
2021/08/14 08:53:55;;;;;;;5.87;4.53;;;;;;;25.14;65.86;101328.99;1689506;82;21093;-85
2021/08/14 08:56:22;;;;;;;7.87;4.33;;;;;;;25.17;61.49;101333.10;1677903;84;21519;-85
2021/08/14 08:58:49;;;;;;;9.98;4.60;;;;;;;25.13;61.60;101330.53;1704934;83;21007;-84
2021/08/14 09:01:16;;;;;;;5.15;4.33;;;;;;;25.13;60.41;101335.34;1727291;82;21050;-83
2021/08/14 09:03:44;;;;;;;4.53;3.92;;;;;;;25.15;58.45;101328.50;1733600;81;21093;-84
2021/08/14 09:06:13;;;;;;;7.87;4.50;;;;;;;25.16;56.94;101322.13;1706850;82;22290;-84
2021/08/14 09:08:40;;;;;;;7.10;4.90;;;;;;;25.19;59.50;101325.25;1725170;81;21112;-84
2021/08/14 09:11:15;;;;;;;5.80;4.40;;;;;;;25.26;61.28;101325.27;1704860;84;21025;-83
2021/08/14 09:14:07;;;;;;;7.60;4.72;;;;;;;25.37;61.25;101319.89;1704844;82;21116;-84
2021/08/14 09:16:34;;;;;;;4.92;4.37;;;;;;;25.54;58.53;101316.94;1678147;84;21061;-83
2021/08/14 09:19:02;;;;;;;5.58;4.97;;;;;;;25.66;55.22;101322.03;1694696;83;21138;-85
2021/08/14 09:21:41;;;;;;;6.60;5.12;;;;;;;25.67;57.15;101325.02;1710458;82;21032;-84
2021/08/14 09:24:09;;;;;;;6.28;4.50;;;;;;;25.71;60.49;101318.77;1699824;83;21081;-84
2021/08/14 09:26:53;;;;;;;4.95;4.25;;;;;;;25.82;56.06;101320.36;1664929;82;21039;-84
2021/08/14 09:29:34;;;;;;;5.47;4.40;;;;;;;25.92;54.55;101314.63;1687933;83;21071;-84
2021/08/14 09:32:05;;;;;;;6.60;5.20;;;;;;;25.98;54.62;101311.16;1686778;82;21140;-84
2021/08/14 09:34:37;;;;;;;6.65;4.50;;;;;;;26.09;52.14;101316.44;1677676;84;21829;-84
2021/08/14 09:37:11;;;;;;;7.15;4.65;;;;;;;26.16;53.29;101318.33;1708969;82;21811;-83
2021/08/14 09:39:57;;;;;;;7.10;4.72;;;;;;;26.21;52.69;101306.52;1695012;82;21116;-84
2021/08/14 09:42:26;;;;;;;6.60;4.33;;;;;;;26.27;52.27;101297.20;1715211;82;21080;-84
2021/08/14 09:45:18;;;;;;;9.83;4.42;;;;;;;26.39;53.77;101295.24;1697099;82;21112;-85
2021/08/14 09:47:48;;;;;;;7.92;4.33;;;;;;;26.51;53.35;101291.45;1715066;82;21136;-84
2021/08/14 09:50:17;;;;;;;6.83;4.80;;;;;;;26.65;51.85;101291.75;1715361;82;21079;-84
2021/08/14 09:52:51;;;;;;;7.72;4.22;;;;;;;26.73;48.83;101297.41;1726721;82;21045;-85
2021/08/14 09:55:23;;;;;;;6.90;4.45;;;;;;;26.68;48.53;101290.01;1727557;81;21610;-84
2021/08/14 09:58:00;;;;;;;5.62;4.75;;;;;;;26.61;48.16;101286.53;1752839;81;21426;-84
2021/08/14 10:00:30;;;;;;;9.73;4.70;;;;;;;26.53;49.91;101278.19;1720448;82;21226;-84
2021/08/14 10:02:59;;;;;;;6.90;4.75;;;;;;;26.56;49.98;101278.32;1714626;81;21102;-85
2021/08/14 10:05:27;;;;;;;5.60;4.62;;;;;;;26.61;49.44;101286.53;1706261;81;21067;-84
2021/08/14 10:07:54;;;;;;;5.47;4.50;;;;;;;26.61;50.01;101279.84;1724860;82;21056;-85
2021/08/14 10:10:22;;;;;;;8.18;4.60;;;;;;;26.67;49.53;101279.02;1727555;81;21166;-84
2021/08/14 10:12:54;;;;;;;5.58;4.97;;;;;;;26.69;48.10;101271.63;1652091;84;37445;-83
2021/08/14 10:15:23;;;;;;;7.12;5.08;;;;;;;26.70;50.32;101259.92;1701446;83;21130;-84
2021/08/14 10:17:53;;;;;;;7.62;5.10;;;;;;;26.77;49.00;101262.59;1724520;81;21117;-85
2021/08/14 10:20:26;;;;;;;7.70;4.90;;;;;;;26.81;48.56;101275.02;1704438;82;21796;-84
2021/08/14 10:23:00;;;;;;;8.33;5.62;;;;;;;26.82;48.35;101269.48;1700325;82;21109;-85
2021/08/14 10:25:28;;;;;;;7.92;4.97;;;;;;;26.84;49.04;101271.94;1688596;83;21026;-85
2021/08/14 10:27:59;;;;;;;7.67;5.60;;;;;;;26.86;48.98;101260.54;1756478;80;21020;-85
2021/08/14 10:30:35;;;;;;;;;;;;;;;26.84;49.20;101258.05;1762401;80;21052;-85
2021/08/14 10:33:03;;;;;;;7.22;4.92;;;;;;;26.84;49.68;101247.37;1754135;80;20146;-84
2021/08/14 10:35:33;;;;;;;8.50;5.80;;;;;;;26.89;50.18;101244.91;1729946;81;21059;-82
2021/08/14 10:38:01;;;;;;;7.10;5.30;;;;;;;26.93;47.67;101254.66;1743753;80;21067;-82
2021/08/14 10:40:59;;;;;;;5.92;5.42;;;;;;;26.96;49.14;101251.55;1786205;80;21016;-83
2021/08/14 10:44:00;;;;;;;8.73;5.60;;;;;;;27.01;48.68;101253.61;1704547;82;21080;-83
2021/08/14 10:46:48;;;;;;;5.72;5.03;;;;;;;26.99;47.33;101252.48;1712766;80;21054;-83
2021/08/14 10:49:23;;;;;;;5.97;5.37;;;;;;;26.92;47.12;101245.81;1709665;81;21544;-84
2021/08/14 10:51:56;;;;;;;11.43;5.80;;;;;;;26.87;48.59;101244.83;1695116;81;21130;-84
2021/08/14 10:54:35;;;;;;;7.33;5.95;;;;;;;26.93;49.01;101257.34;1675135;83;21097;-84
2021/08/14 10:57:09;;;;;;;6.33;5.20;;;;;;;27.05;47.27;101254.84;1724474;82;21039;-84
2021/08/14 10:59:43;;;;;;;6.55;5.20;;;;;;;27.12;45.70;101250.83;1678780;83;21124;-84
2021/08/14 11:02:15;;;;;;;8.75;5.60;;;;;;;27.10;46.24;101250.20;1745713;81;21194;-84
2021/08/14 11:04:54;;;;;;;6.30;5.33;;;;;;;27.12;45.37;101250.83;1748731;81;21554;-84
2021/08/14 11:07:27;;;;;;;6.70;5.75;;;;;;;27.11;44.99;101243.84;1740020;81;21049;-83
2021/08/14 11:09:59;;;;;;;7.40;5.10;;;;;;;27.04;46.87;101244.65;1739452;80;21652;-83
2021/08/14 11:12:41;;;;;;;5.53;4.72;;;;;;;27.03;46.49;101244.38;1755614;80;20990;-84
2021/08/14 11:15:29;;;;;;;7.65;5.50;;;;;;;27.12;46.56;101248.16;1776446;80;21015;-84
2021/08/14 11:18:01;;;;;;;5.70;5.08;;;;;;;27.22;44.69;101245.84;1707034;82;21001;-83
2021/08/14 11:20:39;;;;;;;9.78;5.62;;;;;;;27.32;44.03;101234.72;1776656;80;21049;-83
2021/08/14 11:23:29;;;;;;;7.72;5.25;;;;;;;27.39;45.39;101233.64;1730445;82;21010;-84